Time;durP1;ratioP1;P1;durP2;ratioP2;P2;SDS_P1;SDS_P2;PMS_P1;PMS_P2;Temp;Humidity;BMP_temperature;BMP_pressure;BME280_temperature;BME280_humidity;BME280_pressure;Samples;Min_cycle;Max_cycle;Signal;HPM_P1;HPM_P2
2023/04/25 00:01:59;;;;;;;8.23;6.00;;;;;;;13.43;94.89;99777.31;5029340;28;20076;-72
2023/04/25 00:04:25;;;;;;;9.20;6.05;;;;;;;13.59;96.98;99819.91;5028164;28;20038;-72
2023/04/25 00:06:52;;;;;;;9.18;6.30;;;;;;;13.37;98.56;99790.19;5027129;28;20411;-71
2023/04/25 00:09:17;;;;;;;11.52;6.20;;;;;;;13.57;99.60;99837.16;5028822;28;20065;-72
2023/04/25 00:11:43;;;;;;;11.15;6.50;;;;;;;13.47;100.00;99826.59;5028120;28;20557;-72
2023/04/25 00:14:09;;;;;;;9.43;6.80;;;;;;;13.41;100.00;99832.59;5027962;28;20026;-70
2023/04/25 00:16:35;;;;;;;10.93;7.18;;;;;;;13.25;100.00;99808.97;5027543;28;20065;-73
2023/04/25 00:19:04;;;;;;;10.32;6.72;;;;;;;13.24;100.00;99822.78;5027938;28;20116;-72
2023/04/25 00:21:31;;;;;;;9.17;7.20;;;;;;;13.16;100.00;99810.53;5026331;28;20941;-73
2023/04/25 00:23:56;;;;;;;9.02;7.38;;;;;;;12.65;100.00;99732.91;5025182;28;20065;-73
2023/04/25 00:26:22;;;;;;;13.93;8.05;;;;;;;12.90;100.00;99787.69;5029278;28;20501;-71
2023/04/25 00:28:48;;;;;;;10.38;7.13;;;;;;;12.90;100.00;99805.84;5027496;28;20458;-71
2023/04/25 00:31:14;;;;;;;12.18;7.88;;;;;;;12.85;100.00;99803.16;5027103;28;20116;-68
2023/04/25 00:33:39;;;;;;;11.40;7.45;;;;;;;12.87;100.00;99817.03;5030017;28;20054;-71
2023/04/25 00:36:05;;;;;;;11.43;8.05;;;;;;;12.89;100.00;99798.91;5032534;28;20029;-71
2023/04/25 00:38:31;;;;;;;11.05;7.40;;;;;;;12.93;100.00;99793.81;5030961;28;20030;-71
2023/04/25 00:40:57;;;;;;;9.00;7.43;;;;;;;13.01;100.00;99793.94;5031056;28;20036;-72
2023/04/25 00:43:25;;;;;;;10.93;8.10;;;;;;;12.92;100.00;99765.25;5031741;28;20087;-73
2023/04/25 00:45:52;;;;;;;9.35;6.75;;;;;;;12.81;100.00;99730.53;5032992;28;20032;-69
2023/04/25 00:48:18;;;;;;;9.50;7.47;;;;;;;13.22;100.00;99772.66;5031561;28;20025;-73
2023/04/25 00:50:53;;;;;;;9.77;7.00;;;;;;;13.29;100.00;99772.75;5031445;28;20407;-70
2023/04/25 00:53:20;;;;;;;11.55;7.50;;;;;;;13.31;100.00;99766.72;5031118;28;20028;-73
2023/04/25 00:55:46;;;;;;;12.68;7.22;;;;;;;13.47;100.00;99769.56;5031325;28;20087;-73
2023/04/25 00:58:11;;;;;;;11.57;7.60;;;;;;;13.49;100.00;99757.50;5031809;28;20033;-75
2023/04/25 01:00:39;;;;;;;12.40;9.15;;;;;;;13.57;100.00;99759.34;5031153;28;20037;-72
2023/04/25 01:03:05;;;;;;;11.63;7.68;;;;;;;13.29;100.00;99731.28;5030312;28;20073;-73
2023/04/25 01:05:31;;;;;;;11.02;7.28;;;;;;;13.51;100.00;99746.28;5032016;28;20032;-73
2023/04/25 01:07:57;;;;;;;9.55;7.25;;;;;;;13.54;100.00;99743.72;5031117;28;20482;-73
2023/04/25 01:10:22;;;;;;;8.95;7.20;;;;;;;13.46;100.00;99734.09;5032702;28;20033;-70
2023/04/25 01:12:48;;;;;;;10.88;7.47;;;;;;;13.46;100.00;99735.00;5031145;28;20111;-69
2023/04/25 01:15:13;;;;;;;11.05;7.68;;;;;;;13.41;100.00;99721.97;5029594;28;20022;-74
2023/04/25 01:17:40;;;;;;;9.18;7.40;;;;;;;13.58;100.00;99718.72;5031164;28;20026;-73
2023/04/25 01:20:07;;;;;;;10.23;7.70;;;;;;;13.56;100.00;99710.06;5027646;28;20072;-73
2023/04/25 01:22:33;;;;;;;10.80;7.75;;;;;;;13.55;100.00;99703.97;5031275;28;20438;-71
2023/04/25 01:25:00;;;;;;;12.48;9.10;;;;;;;13.68;100.00;99723.19;5031548;28;20033;-71
2023/04/25 01:27:27;;;;;;;15.73;10.48;;;;;;;13.44;100.00;99674.47;5031095;28;20017;-69
2023/04/25 01:29:54;;;;;;;11.48;9.85;;;;;;;13.57;100.00;99716.97;5030829;28;20091;-70
2023/04/25 01:32:21;;;;;;;9.73;7.40;;;;;;;13.53;100.00;99710.00;5031960;28;20026;-69
2023/04/25 01:34:46;;;;;;;11.35;7.85;;;;;;;13.41;100.00;99701.22;5030559;28;20561;-75
2023/04/25 01:37:12;;;;;;;9.60;7.53;;;;;;;13.27;100.00;99690.63;5029548;28;20030;-69
2023/04/25 01:39:37;;;;;;;10.55;7.93;;;;;;;13.25;100.00;99694.06;5030880;28;20041;-72
2023/04/25 01:42:03;;;;;;;12.32;7.55;;;;;;;13.27;100.00;99688.03;5029052;28;20041;-71
2023/04/25 01:44:29;;;;;;;11.10;7.55;;;;;;;13.38;100.00;99697.72;5029840;28;20022;-70
2023/04/25 01:46:54;;;;;;;10.38;7.32;;;;;;;13.33;100.00;99688.97;5030347;28;20057;-69
2023/04/25 01:49:20;;;;;;;11.68;7.78;;;;;;;13.38;100.00;99697.72;5030545;28;20103;-73
2023/04/25 01:51:45;;;;;;;11.82;7.63;;;;;;;13.42;100.00;99702.97;5030615;28;20099;-69
2023/04/25 01:54:11;;;;;;;9.45;7.88;;;;;;;13.43;100.00;99707.31;5031706;28;20044;-72
2023/04/25 01:56:37;;;;;;;13.38;8.88;;;;;;;13.41;100.00;99700.38;5030265;28;20415;-72
2023/04/25 01:59:04;;;;;;;24.48;14.85;;;;;;;13.37;100.00;99702.03;5030275;28;20030;-71
2023/04/25 02:01:29;;;;;;;17.88;12.82;;;;;;;13.33;100.00;99702.78;5030738;28;20040;-69
2023/04/25 02:03:55;;;;;;;14.40;9.85;;;;;;;13.04;100.00;99664.41;5030245;28;20017;-71
2023/04/25 02:06:20;;;;;;;10.02;7.57;;;;;;;13.09;100.00;99713.72;5029880;28;20061;-72
2023/04/25 02:08:46;;;;;;;10.15;7.72;;;;;;;12.93;100.00;99707.41;5031189;28;20061;-71
2023/04/25 02:11:11;;;;;;;9.65;7.60;;;;;;;12.84;100.00;99695.19;5029990;28;20112;-72
2023/04/25 02:13:37;;;;;;;14.75;8.63;;;;;;;12.98;100.00;99702.31;5029796;28;20029;-69
2023/04/25 02:16:02;;;;;;;13.07;7.88;;;;;;;12.86;100.00;99690.94;5029517;28;20025;-72
2023/04/25 02:18:28;;;;;;;12.85;7.90;;;;;;;12.83;100.00;99697.78;5030093;28;20029;-69
2023/04/25 02:20:54;;;;;;;13.00;8.20;;;;;;;12.70;100.00;99700.16;5029196;28;20472;-73
2023/04/25 02:23:19;;;;;;;12.77;8.32;;;;;;;12.57;100.00;99669.75;5029665;28;20030;-70
2023/04/25 02:25:45;;;;;;;10.63;7.88;;;;;;;12.73;100.00;99696.75;5030162;28;20030;-72
2023/04/25 02:28:10;;;;;;;10.85;7.63;;;;;;;12.72;100.00;99700.19;5029552;28;20466;-71
2023/04/25 02:30:36;;;;;;;9.85;8.25;;;;;;;12.50;100.00;99665.31;5029663;28;20029;-72
2023/04/25 02:33:02;;;;;;;10.02;7.45;;;;;;;12.52;100.00;99699.88;5030869;28;20488;-74
2023/04/25 02:35:27;;;;;;;11.75;8.00;;;;;;;12.46;100.00;99695.44;5029451;28;20479;-75
2023/04/25 02:37:52;;;;;;;11.27;8.73;;;;;;;12.37;100.00;99696.16;5029489;28;20492;-73
2023/04/25 02:40:18;;;;;;;11.65;8.23;;;;;;;12.45;100.00;99699.78;5029282;28;20032;-71
2023/04/25 02:42:45;;;;;;;11.25;7.75;;;;;;;12.40;100.00;99693.66;5030328;28;20029;-68
2023/04/25 02:45:11;;;;;;;11.13;9.00;;;;;;;12.14;100.00;99660.41;5029669;28;20055;-70
2023/04/25 02:47:36;;;;;;;12.70;8.07;;;;;;;12.06;100.00;99664.59;5029767;28;20030;-71
2023/04/25 02:50:02;;;;;;;10.98;8.25;;;;;;;12.21;100.00;99689.00;5035340;28;20468;-73
2023/04/25 02:52:28;;;;;;;11.07;8.65;;;;;;;12.22;100.00;99680.38;5035316;28;20033;-71
2023/04/25 02:54:53;;;;;;;9.55;7.88;;;;;;;12.02;100.00;99646.41;5029826;28;20626;-71
2023/04/25 02:57:19;;;;;;;10.13;7.95;;;;;;;12.24;100.00;99676.13;5030738;28;20048;-72
2023/04/25 02:59:44;;;;;;;11.20;8.55;;;;;;;12.35;100.00;99684.94;5029471;28;20044;-70
2023/04/25 03:02:10;;;;;;;10.57;8.00;;;;;;;12.47;100.00;99689.44;5029443;28;20033;-70
2023/04/25 03:04:36;;;;;;;10.80;8.20;;;;;;;12.50;100.00;99686.03;5031625;28;20070;-70
2023/04/25 03:07:02;;;;;;;10.50;8.48;;;;;;;12.36;100.00;99642.69;5030636;28;20022;-71
2023/04/25 03:09:27;;;;;;;11.38;7.47;;;;;;;12.49;100.00;99648.06;5029295;28;20051;-75
2023/04/25 03:11:53;;;;;;;10.00;7.45;;;;;;;12.75;100.00;99677.81;5029696;28;20426;-73
2023/04/25 03:14:18;;;;;;;10.13;7.18;;;;;;;12.56;100.00;99626.56;5029231;28;20040;-70
2023/04/25 03:16:43;;;;;;;8.57;7.25;;;;;;;12.67;100.00;99640.53;5029696;28;20033;-72
2023/04/25 03:19:09;;;;;;;9.80;7.18;;;;;;;12.86;100.00;99677.97;5030441;28;20048;-70
2023/04/25 03:21:35;;;;;;;10.00;7.18;;;;;;;12.79;100.00;99681.31;5028630;28;20484;-72
2023/04/25 03:24:03;;;;;;;8.50;7.15;;;;;;;12.74;100.00;99677.78;5030227;28;20029;-73
2023/04/25 03:26:28;;;;;;;10.70;7.50;;;;;;;12.46;100.00;99643.69;5030434;28;20033;-72
2023/04/25 03:28:54;;;;;;;10.25;7.65;;;;;;;12.72;100.00;99687.25;5030469;28;20530;-70
2023/04/25 03:31:19;;;;;;;13.32;7.72;;;;;;;12.66;100.00;99689.72;5030332;28;20061;-71
2023/04/25 03:33:45;;;;;;;8.65;7.47;;;;;;;12.36;100.00;99634.91;5028222;28;20057;-72
2023/04/25 03:36:10;;;;;;;9.68;8.20;;;;;;;12.37;100.00;99647.00;5029965;28;20018;-68
2023/04/25 03:38:36;;;;;;;10.57;8.07;;;;;;;12.59;100.00;99674.09;5028361;28;20056;-71
2023/04/25 03:41:01;;;;;;;12.30;8.60;;;;;;;12.61;100.00;99661.16;5029863;28;20036;-69
2023/04/25 03:43:27;;;;;;;10.27;8.35;;;;;;;12.71;100.00;99659.59;5028934;28;20041;-72
2023/04/25 03:45:52;;;;;;;10.48;8.27;;;;;;;12.75;100.00;99664.00;5029798;28;20091;-73
2023/04/25 03:48:21;;;;;;;12.25;8.65;;;;;;;12.73;100.00;99671.72;5028792;28;20037;-73
2023/04/25 03:50:46;;;;;;;11.30;8.20;;;;;;;12.67;100.00;99676.81;5026471;28;20056;-75
2023/04/25 03:53:12;;;;;;;12.38;7.50;;;;;;;12.36;100.00;99637.50;5029010;28;20033;-75
2023/04/25 03:55:38;;;;;;;11.60;8.23;;;;;;;12.51;100.00;99698.13;5028686;28;20063;-69
2023/04/25 03:58:03;;;;;;;10.90;7.70;;;;;;;12.36;100.00;99686.69;5028289;28;20033;-72
2023/04/25 04:00:29;;;;;;;10.02;7.95;;;;;;;12.29;100.00;99683.09;5028050;28;20043;-72
2023/04/25 04:02:54;;;;;;;9.13;7.93;;;;;;;12.22;100.00;99659.69;5029338;28;20018;-73
2023/04/25 04:05:20;;;;;;;9.57;7.55;;;;;;;11.86;100.00;99590.91;5029422;28;20060;-75
2023/04/25 04:07:45;;;;;;;11.38;7.95;;;;;;;12.62;100.00;99707.81;5031787;28;20032;-76
2023/04/25 04:10:11;;;;;;;14.15;8.05;;;;;;;12.56;100.00;99678.34;5032487;28;20048;-71
2023/04/25 04:12:37;;;;;;;14.98;10.02;;;;;;;12.69;100.00;99698.44;5029114;28;20036;-74
2023/04/25 04:15:04;;;;;;;21.45;15.68;;;;;;;12.67;100.00;99696.66;5030005;28;20037;-74
2023/04/25 04:17:30;;;;;;;17.63;10.95;;;;;;;12.56;100.00;99705.13;5030233;28;20045;-74
2023/04/25 04:19:56;;;;;;;14.02;9.02;;;;;;;12.48;100.00;99695.50;5014160;28;20131;-73
2023/04/25 04:22:22;;;;;;;14.20;8.88;;;;;;;12.40;100.00;99704.00;5031729;28;20090;-74
2023/04/25 04:24:49;;;;;;;10.35;8.88;;;;;;;12.33;100.00;99701.28;5034000;28;20034;-73
2023/04/25 04:27:19;;;;;;;15.73;8.82;;;;;;;12.31;100.00;99703.81;5033382;28;20037;-73
2023/04/25 04:29:45;;;;;;;12.05;9.25;;;;;;;12.30;100.00;99691.75;5033881;28;20021;-75
2023/04/25 04:32:12;;;;;;;10.90;8.63;;;;;;;12.46;100.00;99706.69;5033773;28;20037;-72
2023/04/25 04:34:39;;;;;;;14.05;9.18;;;;;;;12.55;100.00;99697.34;5033559;28;20045;-73
2023/04/25 04:37:05;;;;;;;10.88;8.20;;;;;;;12.31;100.00;99677.94;5047867;28;20038;-73
2023/04/25 04:39:30;;;;;;;10.55;8.43;;;;;;;12.38;100.00;99699.66;5033020;28;20063;-71
2023/04/25 04:41:56;;;;;;;8.60;7.43;;;;;;;12.44;100.00;99703.19;5033129;28;20030;-72
2023/04/25 04:44:21;;;;;;;14.50;8.88;;;;;;;12.55;100.00;99705.97;5033501;28;20109;-71
2023/04/25 04:46:46;;;;;;;11.20;8.18;;;;;;;12.64;100.00;99681.09;5032130;28;20543;-72
2023/04/25 04:49:13;;;;;;;11.50;7.80;;;;;;;12.26;100.00;99587.31;5032668;28;20025;-74
2023/04/25 04:51:40;;;;;;;13.60;8.50;;;;;;;13.00;100.00;99692.84;5032162;28;20026;-70
2023/04/25 04:54:05;;;;;;;11.63;8.00;;;;;;;12.88;100.00;99675.41;5032890;28;20021;-74
2023/04/25 04:56:31;;;;;;;9.40;7.95;;;;;;;12.77;100.00;99652.81;5033121;28;20036;-70
2023/04/25 04:58:57;;;;;;;14.15;8.07;;;;;;;13.01;100.00;99698.06;5031876;28;20435;-71
2023/04/25 05:01:23;;;;;;;11.05;8.40;;;;;;;13.03;100.00;99691.16;5033420;28;20030;-71
2023/04/25 05:03:49;;;;;;;11.30;8.32;;;;;;;12.91;100.00;99663.38;5033284;28;20026;-70
2023/04/25 05:06:15;;;;;;;12.75;9.20;;;;;;;13.14;100.00;99680.94;5033461;28;20064;-74
2023/04/25 05:08:40;;;;;;;12.63;8.75;;;;;;;13.25;100.00;99684.56;5032542;28;20049;-71
2023/04/25 05:11:05;;;;;;;11.13;8.35;;;;;;;13.35;100.00;99685.56;5030545;28;20550;-74
2023/04/25 05:13:31;;;;;;;11.73;7.93;;;;;;;13.16;100.00;99647.28;5032759;28;20021;-70
2023/04/25 05:15:56;;;;;;;10.23;7.88;;;;;;;13.33;100.00;99669.09;5032677;28;20034;-73
2023/04/25 05:18:22;;;;;;;12.70;7.93;;;;;;;13.46;100.00;99682.25;5032220;28;20064;-73
2023/04/25 05:20:47;;;;;;;19.58;8.65;;;;;;;13.35;100.00;99663.94;5032088;28;20091;-73
2023/04/25 05:23:13;;;;;;;11.75;9.10;;;;;;;13.53;100.00;99681.47;5032241;28;20143;-72
2023/04/25 05:25:39;;;;;;;15.32;8.10;;;;;;;13.61;100.00;99678.97;5031880;28;20036;-70
2023/04/25 05:28:05;;;;;;;10.32;7.10;;;;;;;13.52;100.00;99654.69;5032445;28;20051;-72
2023/04/25 05:30:30;;;;;;;12.00;7.20;;;;;;;13.64;100.00;99682.47;5032293;28;20037;-73
2023/04/25 05:32:56;;;;;;;14.98;7.80;;;;;;;13.71;100.00;99676.50;5031645;28;20478;-73
2023/04/25 05:35:21;;;;;;;10.00;6.88;;;;;;;13.53;98.75;99632.19;5031946;28;20017;-74
2023/04/25 05:37:47;;;;;;;9.98;6.90;;;;;;;13.85;99.36;99665.41;5031705;28;20411;-75
2023/04/25 05:40:13;;;;;;;9.23;7.20;;;;;;;13.89;99.81;99667.19;5031297;28;20044;-74
2023/04/25 05:42:38;;;;;;;10.05;7.55;;;;;;;14.03;98.78;99675.09;5032205;28;20037;-70
2023/04/25 05:45:04;;;;;;;11.80;7.72;;;;;;;14.12;98.71;99676.91;5031619;28;20026;-72
2023/04/25 05:47:29;;;;;;;10.07;7.28;;;;;;;13.95;97.90;99646.50;5029570;28;20115;-76
2023/04/25 05:49:55;;;;;;;13.88;7.70;;;;;;;14.21;96.73;99670.09;5031602;28;20048;-72
2023/04/25 05:52:20;;;;;;;11.93;7.07;;;;;;;14.28;96.50;99660.66;5031389;28;20025;-70
2023/04/25 05:54:45;;;;;;;8.98;7.70;;;;;;;14.34;96.74;99658.09;5031474;28;20381;-74
2023/04/25 05:57:24;;;;;;;10.73;8.13;;;;;;;14.37;96.00;99670.25;5031466;28;20029;-73
2023/04/25 05:59:50;;;;;;;12.20;8.47;;;;;;;14.08;97.72;99673.41;5031350;28;20029;-73
2023/04/25 06:02:16;;;;;;;11.07;7.90;;;;;;;14.03;98.94;99669.91;5031475;28;20025;-70
2023/04/25 06:04:41;;;;;;;9.23;6.10;;;;;;;13.80;97.65;99667.09;5031597;28;20419;-73
2023/04/25 06:07:06;;;;;;;11.80;6.95;;;;;;;13.81;95.14;99645.50;5030948;28;20029;-71
2023/04/25 06:09:32;;;;;;;12.57;7.43;;;;;;;14.05;94.86;99657.84;5031452;28;20032;-70
2023/04/25 06:11:57;;;;;;;8.13;6.97;;;;;;;14.22;95.37;99679.63;5031641;28;20438;-73
2023/04/25 06:14:23;;;;;;;7.70;6.03;;;;;;;14.14;93.97;99685.59;5031249;28;20025;-70
2023/04/25 06:16:48;;;;;;;9.85;6.18;;;;;;;13.89;93.46;99662.88;5030922;28;20029;-70
2023/04/25 06:19:13;;;;;;;11.45;6.47;;;;;;;14.01;94.31;99689.81;5031143;28;20594;-73
2023/04/25 06:21:39;;;;;;;7.68;5.60;;;;;;;14.18;90.62;99672.69;5029212;28;20072;-72
2023/04/25 06:24:04;;;;;;;9.32;5.30;;;;;;;14.48;88.32;99683.31;5030873;28;20116;-72
2023/04/25 06:26:30;;;;;;;7.72;5.32;;;;;;;14.66;84.27;99682.63;5030413;28;20058;-70
2023/04/25 06:28:55;;;;;;;7.75;5.03;;;;;;;14.56;82.97;99668.66;5030762;28;20025;-69
2023/04/25 06:31:21;;;;;;;10.60;5.43;;;;;;;14.67;81.71;99677.44;5030442;28;20032;-71
2023/04/25 06:33:48;;;;;;;8.02;4.93;;;;;;;14.79;82.93;99687.06;5030829;28;20130;-69
2023/04/25 06:36:13;;;;;;;7.63;5.55;;;;;;;14.80;82.42;99680.13;5030672;28;20061;-73
2023/04/25 06:38:42;;;;;;;9.88;7.30;;;;;;;14.88;85.67;99688.84;5030752;28;20638;-70
2023/04/25 06:41:07;;;;;;;13.40;7.50;;;;;;;14.77;91.51;99655.00;5030680;28;20026;-72
2023/04/25 06:43:33;;;;;;;11.80;7.60;;;;;;;14.87;91.56;99667.19;5030941;28;20033;-71
2023/04/25 06:46:00;;;;;;;9.98;7.00;;;;;;;15.00;90.31;99678.53;5030766;28;20055;-74
2023/04/25 06:48:26;;;;;;;10.55;5.43;;;;;;;14.88;85.74;99647.28;5030383;28;20034;-71
2023/04/25 06:50:52;;;;;;;7.47;5.55;;;;;;;15.05;84.03;99675.94;5030368;28;20018;-70
2023/04/25 06:53:18;;;;;;;6.50;5.30;;;;;;;14.62;85.00;99602.91;5030446;28;20053;-71
2023/04/25 06:55:44;;;;;;;8.77;4.82;;;;;;;14.94;84.89;99654.22;5030261;28;20021;-69
2023/04/25 06:58:09;;;;;;;8.13;5.45;;;;;;;14.81;86.24;99671.47;5030626;28;20167;-73
2023/04/25 07:00:35;;;;;;;5.22;3.72;;;;;;;14.87;81.05;99651.59;5030005;28;20066;-72
2023/04/25 07:03:01;;;;;;;8.10;4.70;;;;;;;15.19;84.36;99670.84;5030654;28;20029;-75
2023/04/25 07:05:27;;;;;;;6.82;4.40;;;;;;;15.40;80.42;99672.66;5029769;28;20052;-70
2023/04/25 07:07:52;;;;;;;7.97;5.10;;;;;;;15.14;82.43;99655.22;5030298;28;20049;-69
2023/04/25 07:10:18;;;;;;;7.85;4.55;;;;;;;15.24;80.87;99656.13;5030187;28;20117;-70
2023/04/25 07:12:43;;;;;;;8.27;4.85;;;;;;;15.35;78.31;99671.75;5030343;28;20025;-70
2023/04/25 07:15:10;;;;;;;8.18;4.30;;;;;;;15.06;80.99;99645.63;5029859;28;20465;-72
2023/04/25 07:17:35;;;;;;;7.72;4.82;;;;;;;15.07;80.76;99642.19;5030178;28;20018;-72
2023/04/25 07:20:01;;;;;;;6.15;4.38;;;;;;;15.30;81.46;99666.56;5030215;28;20028;-72
2023/04/25 07:22:27;;;;;;;10.40;4.43;;;;;;;15.24;79.38;99629.25;5030129;28;20472;-76
2023/04/25 07:24:53;;;;;;;5.95;3.97;;;;;;;15.33;79.51;99666.56;5029982;28;20486;-71
2023/04/25 07:27:18;;;;;;;5.55;4.20;;;;;;;15.61;77.71;99671.88;5030028;28;20033;-70
2023/04/25 07:29:44;;;;;;;5.53;3.70;;;;;;;15.77;79.53;99656.31;5029668;28;20049;-73
2023/04/25 07:32:11;;;;;;;7.13;4.15;;;;;;;15.83;78.08;99662.44;5030019;28;20032;-70
2023/04/25 07:34:38;;;;;;;7.40;4.15;;;;;;;16.07;76.51;99659.88;5029772;28;20048;-72
2023/04/25 07:37:04;;;;;;;6.00;4.35;;;;;;;16.06;76.16;99622.53;5030035;28;20434;-71
2023/04/25 07:39:30;;;;;;;7.03;4.30;;;;;;;16.22;74.66;99617.34;5029317;28;20025;-72
2023/04/25 07:41:56;;;;;;;9.93;3.95;;;;;;;16.33;74.60;99605.19;5030127;28;20036;-70
2023/04/25 07:44:21;;;;;;;4.97;3.80;;;;;;;16.76;73.41;99626.00;5033871;28;20379;-71
2023/04/25 07:46:47;;;;;;;4.53;3.40;;;;;;;16.75;72.31;99626.00;5034256;28;20476;-70
2023/04/25 07:49:12;;;;;;;8.57;4.25;;;;;;;16.76;72.47;99604.25;5033511;28;20109;-72
2023/04/25 07:51:37;;;;;;;6.35;4.30;;;;;;;16.82;72.49;99630.31;5034104;28;20030;-70
2023/04/25 07:54:03;;;;;;;8.63;4.00;;;;;;;16.69;73.02;99632.09;5034051;28;20043;-73
2023/04/25 07:56:28;;;;;;;5.82;3.83;;;;;;;16.66;72.69;99587.81;5034191;28;20021;-73
2023/04/25 07:58:55;;;;;;;5.22;3.92;;;;;;;16.96;72.47;99615.56;5033765;28;20080;-71
2023/04/25 08:01:21;;;;;;;7.47;3.50;;;;;;;17.11;71.26;99619.00;5033398;28;20030;-70
2023/04/25 08:03:46;;;;;;;5.47;3.60;;;;;;;17.12;72.72;99611.16;5033200;28;20082;-71
2023/04/25 08:06:12;;;;;;;7.82;4.07;;;;;;;17.35;70.78;99617.16;5033831;28;20446;-72
2023/04/25 08:08:37;;;;;;;7.18;3.95;;;;;;;17.43;69.95;99617.97;5033292;28;20399;-73
2023/04/25 08:11:03;;;;;;;6.28;3.83;;;;;;;17.41;70.39;99602.34;5033704;28;20033;-72
2023/04/25 08:13:28;;;;;;;6.45;3.90;;;;;;;17.57;70.05;99615.28;5033211;28;20399;-73
2023/04/25 08:15:54;;;;;;;5.65;3.92;;;;;;;17.74;70.50;99613.44;5033707;28;20494;-68
2023/04/25 08:18:19;;;;;;;5.95;3.40;;;;;;;17.90;70.91;99615.97;5033094;28;20026;-69
2023/04/25 08:20:45;;;;;;;4.70;3.55;;;;;;;17.87;69.10;99600.31;5033114;28;20033;-74
2023/04/25 08:23:11;;;;;;;6.63;3.42;;;;;;;17.88;70.04;99607.28;5033489;28;20464;-72
2023/04/25 08:25:36;;;;;;;4.72;3.55;;;;;;;17.85;69.62;99605.53;5033290;28;20030;-74
2023/04/25 08:28:02;;;;;;;7.40;3.55;;;;;;;17.83;70.20;99602.09;5032795;28;20034;-71
2023/04/25 08:30:28;;;;;;;5.38;3.33;;;;;;;17.66;69.43;99598.69;5033204;28;20413;-74
2023/04/25 08:32:54;;;;;;;6.82;4.03;;;;;;;17.44;70.97;99576.22;5031515;28;20065;-71
2023/04/25 08:35:20;;;;;;;6.57;3.80;;;;;;;17.78;69.41;99615.19;5033216;28;20076;-74
2023/04/25 08:37:45;;;;;;;6.00;3.83;;;;;;;17.71;69.66;99581.28;5032590;28;20037;-71
2023/04/25 08:40:14;;;;;;;5.10;3.40;;;;;;;17.79;70.38;99600.38;5033053;28;20112;-73
2023/04/25 08:42:41;;;;;;;6.30;3.67;;;;;;;17.79;68.77;99601.25;5032786;28;20101;-70
2023/04/25 08:45:08;;;;;;;5.63;3.83;;;;;;;18.07;68.42;99611.53;5033380;28;20463;-73
2023/04/25 08:47:34;;;;;;;7.85;4.07;;;;;;;18.11;68.61;99594.94;5032215;28;20029;-73
2023/04/25 08:50:02;;;;;;;9.40;3.38;;;;;;;18.40;68.05;99608.63;5032904;28;20029;-74
2023/04/25 08:52:32;;;;;;;5.20;3.22;;;;;;;18.52;67.18;99620.75;5032810;28;20072;-74
2023/04/25 08:55:00;;;;;;;5.50;3.90;;;;;;;18.73;66.29;99614.44;5032693;28;20064;-71
2023/04/25 08:57:27;;;;;;;6.65;3.50;;;;;;;18.41;66.14;99542.44;5032571;28;20022;-72
2023/04/25 08:59:53;;;;;;;5.70;3.58;;;;;;;18.96;66.15;99618.59;5046648;28;20119;-72
2023/04/25 09:02:20;;;;;;;8.13;4.53;;;;;;;18.91;67.42;99589.84;5032462;28;20033;-75
2023/04/25 09:04:46;;;;;;;8.02;4.93;;;;;;;19.00;68.58;99612.44;5032827;28;20025;-72
2023/04/25 09:07:11;;;;;;;6.75;3.22;;;;;;;19.02;67.01;99600.22;5032663;28;20035;-74
2023/04/25 09:09:37;;;;;;;15.75;7.85;;;;;;;19.24;65.88;99606.91;5032666;28;20032;-75
2023/04/25 09:12:02;;;;;;;5.40;3.50;;;;;;;19.39;66.04;99602.38;5032438;28;20053;-70
2023/04/25 09:14:28;;;;;;;6.43;3.58;;;;;;;19.21;65.80;99606.91;5032279;28;20025;-72
2023/04/25 09:16:59;;;;;;;5.38;3.20;;;;;;;19.27;65.21;99592.91;5032167;28;20411;-73
2023/04/25 09:19:30;;;;;;;5.70;3.50;;;;;;;19.32;64.71;99598.94;5032347;28;20507;-71
2023/04/25 09:22:00;;;;;;;4.28;3.58;;;;;;;19.55;71.97;99596.03;5036595;28;20036;-71
2023/04/25 09:24:49;;;;;;;5.53;3.50;;;;;;;19.51;64.11;99596.09;5031321;28;20029;-71
2023/04/25 09:27:20;;;;;;;5.75;3.58;;;;;;;19.65;64.11;99593.25;5027258;28;20026;-74
2023/04/25 09:29:46;;;;;;;5.90;3.20;;;;;;;19.97;70.68;99594.56;5032540;28;20460;-71
2023/04/25 09:32:14;;;;;;;5.60;3.30;;;;;;;20.20;63.89;99574.09;5029593;28;20036;-75
2023/04/25 09:34:41;;;;;;;4.50;3.30;;;;;;;20.02;68.96;99528.09;5032512;28;20381;-71
2023/04/25 09:37:13;;;;;;;6.68;3.47;;;;;;;20.50;66.19;99573.59;5032328;28;20036;-73
2023/04/25 09:39:39;;;;;;;5.10;3.15;;;;;;;20.29;63.68;99528.53;5032414;28;20424;-71
2023/04/25 09:42:05;;;;;;;4.70;3.25;;;;;;;20.39;61.36;99560.69;5032376;28;20040;-73
2023/04/25 09:44:31;;;;;;;6.05;3.22;;;;;;;20.47;60.87;99557.91;5032359;28;20475;-73
2023/04/25 09:46:56;;;;;;;5.03;3.65;;;;;;;20.29;62.18;99548.63;5032351;28;20028;-74
2023/04/25 09:49:22;;;;;;;4.72;2.80;;;;;;;20.65;63.86;99559.34;5032335;28;20032;-74
2023/04/25 09:51:58;;;;;;;6.35;2.97;;;;;;;20.64;60.51;99547.13;5032191;28;20044;-71
2023/04/25 09:54:26;;;;;;;4.35;2.53;;;;;;;20.56;58.19;99539.41;5032162;28;20053;-73
2023/04/25 09:56:53;;;;;;;4.38;2.38;;;;;;;20.36;58.09;99530.16;5032232;28;20407;-75
2023/04/25 09:59:25;;;;;;;4.28;2.33;;;;;;;20.34;55.39;99491.75;5031935;28;20029;-72
2023/04/25 10:01:52;;;;;;;2.80;2.00;;;;;;;20.50;54.04;99510.69;5032137;28;20368;-73
2023/04/25 10:04:25;;;;;;;3.20;2.13;;;;;;;20.65;53.78;99512.13;5031834;28;20021;-76
2023/04/25 10:06:54;;;;;;;3.30;2.03;;;;;;;20.66;54.87;99513.84;5031491;28;20105;-73
2023/04/25 10:09:21;;;;;;;3.58;2.00;;;;;;;20.71;56.76;99506.78;5031638;28;20411;-72
2023/04/25 10:11:50;;;;;;;3.42;2.25;;;;;;;20.84;55.07;99502.16;5031911;28;20029;-70
2023/04/25 10:14:16;;;;;;;4.88;2.47;;;;;;;21.04;55.57;99487.75;5031815;28;20021;-70
2023/04/25 10:16:42;;;;;;;2.22;2.03;;;;;;;21.10;55.64;99504.22;5031487;28;20040;-71
2023/04/25 10:19:09;;;;;;;4.15;2.28;;;;;;;20.77;55.83;99496.19;5031537;28;20021;-72
2023/04/25 10:21:39;;;;;;;3.33;2.10;;;;;;;20.68;52.27;99491.06;5031771;28;20036;-70
2023/04/25 10:24:05;;;;;;;3.80;2.25;;;;;;;20.78;53.40;99503.13;5031630;28;20057;-76
2023/04/25 10:26:31;;;;;;;13.63;7.97;;;;;;;21.23;52.46;99493.44;5031632;28;20541;-73
2023/04/25 10:28:59;;;;;;;3.67;2.72;;;;;;;21.65;58.71;99498.63;5031852;28;20033;-74
2023/04/25 10:31:25;;;;;;;4.00;2.25;;;;;;;21.39;54.90;99467.72;5031702;28;20472;-71
2023/04/25 10:33:51;;;;;;;2.80;2.13;;;;;;;21.37;51.86;99503.63;5031223;28;20049;-71
2023/04/25 10:36:22;;;;;;;2.47;1.90;;;;;;;21.05;51.10;99487.72;5031508;28;20105;-75
2023/04/25 10:38:52;;;;;;;4.38;2.10;;;;;;;21.00;51.78;99490.44;5031413;28;20029;-73
2023/04/25 10:41:20;;;;;;;2.55;1.73;;;;;;;20.87;51.81;99485.47;5030921;28;20467;-70
2023/04/25 10:43:58;;;;;;;4.05;1.92;;;;;;;20.94;53.83;99476.59;5012414;28;20129;-71
2023/04/25 10:46:29;;;;;;;3.75;2.65;;;;;;;21.50;54.78;99478.81;5030676;28;20017;-69
2023/04/25 10:49:00;;;;;;;4.65;2.58;;;;;;;21.83;53.89;99470.16;5030924;28;20037;-72
2023/04/25 10:51:33;;;;;;;7.88;2.55;;;;;;;22.10;52.12;99464.19;5030830;28;20040;-71
2023/04/25 10:54:06;;;;;;;4.78;3.03;;;;;;;21.87;53.70;99456.03;5031043;28;20037;-73
2023/04/25 10:56:35;;;;;;;4.70;2.50;;;;;;;21.09;57.77;99472.78;5030873;28;20033;-73
2023/04/25 10:59:12;;;;;;;3.92;2.83;;;;;;;20.89;60.81;99467.97;5031050;28;20029;-72
2023/04/25 11:01:43;;;;;;;3.55;2.85;;;;;;;21.06;61.02;99441.31;5031067;28;20116;-69
2023/04/25 11:04:28;;;;;;;3.85;2.80;;;;;;;21.21;57.47;99467.25;5031246;28;20029;-73
2023/04/25 11:07:12;;;;;;;6.40;2.83;;;;;;;20.87;61.07;99478.47;5030930;28;20028;-70
2023/04/25 11:09:41;;;;;;;4.22;3.00;;;;;;;21.06;60.25;99475.44;5030813;28;20116;-76
2023/04/25 11:12:11;;;;;;;3.20;2.90;;;;;;;21.15;60.87;99478.72;5027176;28;20107;-73
2023/04/25 11:14:36;;;;;;;3.88;2.92;;;;;;;21.06;61.08;99476.31;5028469;28;20060;-72
2023/04/25 11:17:02;;;;;;;4.13;2.90;;;;;;;21.10;59.06;99467.47;5029559;28;20507;-73
2023/04/25 11:19:28;;;;;;;3.40;2.70;;;;;;;21.30;58.49;99461.75;5030395;28;20162;-73
2023/04/25 11:21:58;;;;;;;6.03;2.88;;;;;;;21.15;59.69;99478.72;5030251;28;20029;-70
2023/04/25 11:24:32;;;;;;;3.05;2.53;;;;;;;20.60;59.76;99469.38;5030635;28;20025;-70